• Join FlightAware (Why Join?)
  • Login
  • US Flag 
Gobble Gobble! 
09:47AM EST


 

Airport Tracker/Info


-or-


 

Live Flight TrackerFlight Track Log ✈ QFA722 ✈ 16-Sep-2013 ✈ YBAS / ASP - YPAD / ADL

Flight Track Log - Related Links

Times and Time Zones

All times are in EDT time to prevent confusion due to time zone crossing. See the QFA722 flight status page for this flight to view local times or setup timezone preferences in your user account.

Time Position Orientation Groundspeed Altitude Reporting Facility
EDT Latitude Longitude Course Direction KTS MPH feet Rate Location/Type
11:40PM -23.9058 133.9396 161° South 39,000  Level Aus ATC (Calculated)
11:41PM -24.0004 133.9771 161° South 39,000 -60 Level Aus ATC (Calculated)
11:43PM -24.0955 134.0152 160° South  Level FlightAware Approximate
11:43PM -24.1835 134.0501 161° South 39,000  Level Aus ATC (Calculated)
11:44PM -24.1707 134.0453 160° South  Level FlightAware Approximate
11:44PM -24.2693 134.0843 161° South 39,000  Level Aus ATC (Calculated)
11:45PM -24.2849 134.0907 160° South  Level FlightAware Approximate
11:45PM -24.3524 134.1175 161° South 39,000  Level Aus ATC (Calculated)
11:46PM -24.4329 134.1498 161° South 39,000 -60 Level Aus ATC (Calculated)
11:47PM -24.5889 134.2123 161° South 39,000 -60 Level Aus ATC (Calculated)
11:49PM -24.6915 134.2538 160° South  Level FlightAware Approximate
11:49PM -24.7351 134.2711 161° South 39,000  Level Aus ATC (Calculated)
11:50PM -24.8701 134.3255 161° South 39,000 -60 Level Aus ATC (Calculated)
11:52PM -24.9789 134.3697 160° South  Level FlightAware Approximate
11:52PM -25.0629 134.4034 161° South 39,000  Level Aus ATC (Calculated)
11:52PM -25.1212 134.4270 161° South 39,000 -60 Level Aus ATC (Calculated)
11:53PM -25.2341 134.4728 161° South 39,000 -60 Level Aus ATC (Calculated)
11:54PM -25.2870 134.4943 161° South 39,000 -60 Level Aus ATC (Calculated)
11:55PM -25.4407 134.5569 161° South 39,000 -60 Level Aus ATC (Calculated)
11:56PM -25.4244 134.5464 162° South  Level Estimated
11:57PM -25.5453 134.5967 161° South  Level FlightAware Approximate
11:58PM -25.6210 134.6256 161° South  Level FlightAware Approximate
11:58PM -25.7192 134.6707 161° South 39,000  Level Aus ATC (Calculated)
12:00AM -25.8239 134.7105 161° South  Level FlightAware Approximate
12:01AM -25.8995 134.7394 161° South  Level FlightAware Approximate
12:01AM -26.0209 134.7945 162° South 39,000  Level Aus ATC (Calculated)
12:03AM -26.1255 134.8344 161° South  Level FlightAware Approximate
12:04AM -26.2012 134.8633 161° South  Level FlightAware Approximate
12:05AM -26.2769 134.8922 161° South  Level FlightAware Approximate
12:06AM -26.3526 134.9211 161° South  Level FlightAware Approximate
12:06AM -26.5861 135.0285 162° South 39,000  Level Aus ATC (Calculated)
12:08AM -26.6909 135.0683 161° South  Level FlightAware Approximate
12:09AM -26.7666 135.0970 161° South  Level FlightAware Approximate
12:09AM -26.8403 135.1346 162° South 39,000  Level Aus ATC (Calculated)
12:10AM -26.8424 135.1258 161° South  Level FlightAware Approximate
12:11AM -26.9602 135.1798 161° South  Level FlightAware Approximate
12:11AM -27.0793 135.2395 162° South 39,000  Level Aus ATC (Calculated)
12:13AM -27.2236 135.2935 162° South  Level FlightAware Approximate
12:14AM -27.3002 135.3222 162° South  Level FlightAware Approximate
12:14AM -27.4649 135.4141 162° South 39,000  Level Aus ATC (Calculated)
12:15AM -27.3768 135.3510 162° South  Level FlightAware Approximate
12:16AM -27.5660 135.4509 162° South  Level FlightAware Approximate
12:17AM -27.6429 135.4789 162° South  Level FlightAware Approximate
12:18AM -27.7197 135.5069 162° South  Level FlightAware Approximate
12:19AM -27.7966 135.5349 162° South  Level FlightAware Approximate
12:19AM -28.0789 135.6437 162° South 39,000  Level Aus ATC (Calculated)
12:21AM -28.1889 135.6838 162° South  Level FlightAware Approximate
12:22AM -28.2664 135.7121 162° South  Level FlightAware Approximate
12:23AM -28.3440 135.7405 162° South  Level FlightAware Approximate
12:24AM -28.4216 135.7690 162° South  Level FlightAware Approximate
12:24AM -28.6156 135.8402 162° South 39,000  Level Aus ATC (Calculated)
12:25AM -28.6826 135.8649 162° South 39,000 -60 Level Aus ATC (Calculated)
12:27AM -28.8225 135.9205 162° South  Level Estimated
12:27AM -28.8838 135.9392 162° South 39,000  Level Aus ATC (Calculated)
12:28AM -28.9612 135.9683 162° South  Level FlightAware Approximate
12:28AM -29.0178 135.9889 162° South 39,000  Level Aus ATC (Calculated)
12:28AM -29.0848 136.0138 162° South 39,000 -60 Level Aus ATC (Calculated)
12:29AM -29.0952 136.0181 162° South  Level FlightAware Approximate
12:30AM -29.1829 136.0509 162° South  Level FlightAware Approximate
12:30AM -29.3529 136.1137 162° South 39,000  Level Aus ATC (Calculated)
12:31AM -29.2603 136.0802 162° South  Level FlightAware Approximate
12:32AM -29.4444 136.1485 162° South  Level FlightAware Approximate
12:32AM -29.5539 136.1889 162° South 39,000  Level Aus ATC (Calculated)
12:33AM -29.5218 136.1781 162° South  Level FlightAware Approximate
12:34AM -29.6325 136.2191 162° South  Level FlightAware Approximate
12:35AM -29.7098 136.2487 162° South  Level FlightAware Approximate
12:36AM -29.7871 136.2785 162° South  Level FlightAware Approximate
12:37AM -29.8644 136.3083 162° South  Level FlightAware Approximate
12:37AM -30.1430 136.4153 162° South 39,000  Level Aus ATC (Calculated)
12:38AM -29.9417 136.3381 162° South  Level FlightAware Approximate
12:39AM -30.2293 136.4488 161° South  Level FlightAware Approximate
12:39AM -30.3250 136.4861 162° South 39,000  Level Aus ATC (Calculated)
12:40AM -30.4160 136.5217 162° South 39,000 -60 Level Aus ATC (Calculated)
12:42AM -30.5344 136.5680 161° South  Level FlightAware Approximate
12:43AM -30.6117 136.5983 161° South  Level FlightAware Approximate
12:44AM -30.6889 136.6286 161° South  Level FlightAware Approximate
12:45AM -30.7654 136.6612 163° South  Level Estimated
12:45AM -30.9617 136.7362 162° South 39,000  Level Aus ATC (Calculated)
12:46AM -31.2277 136.8344 163° South 422 486 38,900 -120 Descending Aus ATC (RADAR)
12:47AM -31.2663 136.8439 168° South 423 487 38,900  Level Aus ATC (RADAR)
12:47AM -31.3415 136.8699 164° South 424 488 38,900  Level Aus ATC (RADAR)
12:48AM -31.4264 136.9010 163° South 429 494 38,900  Level Aus ATC (RADAR)
12:49AM -31.4915 136.9300 159° South 431 496 38,900  Level Aus ATC (RADAR)
12:49AM -31.5498 136.9507 163° South 436 502 38,900  Level Aus ATC (RADAR)
12:50AM -31.6180 136.9768 162° South 442 509 38,900  Level Aus ATC (RADAR)
12:50AM -31.6868 137.0026 162° South 447 514 38,900  Level Aus ATC (RADAR)
12:51AM -31.8065 137.0416 165° South 448 516 38,900  Level Aus ATC (RADAR)
12:52AM -31.8560 137.0596 163° South 449 517 38,900  Level Aus ATC (RADAR)
12:52AM -31.9248 137.0869 161° South 449 517 38,900  Level Aus ATC (RADAR)
12:53AM -32.0037 137.1181 161° South 450 518 38,900  Level Aus ATC (RADAR)
12:53AM -32.0722 137.1451 162° South 448 516 38,900  Level Aus ATC (RADAR)
12:54AM -32.1427 137.1695 164° South 452 520 38,900  Level Aus ATC (RADAR)
12:55AM -32.2125 137.1954 163° South 452 520 38,900  Level Aus ATC (RADAR)
12:55AM -32.2814 137.2210 163° South 446 513 38,900  Level Aus ATC (RADAR)
12:56AM -32.4179 137.2723 162° South 444 511 38,900  Level Aus ATC (RADAR)
12:57AM -32.4666 137.2932 160° South 448 516 38,900  Level Aus ATC (RADAR)
12:57AM -32.5314 137.3385 149° Southeast 462 532 38,900  Level Aus ATC (RADAR)
12:58AM -32.6134 137.4290 137° Southeast 478 550 38,900  Level Aus ATC (RADAR)
12:59AM -32.6708 137.4908 138° Southeast 483 556 38,900  Level Aus ATC (RADAR)
12:59AM -32.7370 137.5611 138° Southeast 479 551 38,900  Level Aus ATC (RADAR)
01:00AM -32.7872 137.6142 138° Southeast 484 557 38,900  Level Aus ATC (RADAR)
01:01AM -32.8500 137.6658 145° Southeast 478 550 38,900 -240 Level Aus ATC (RADAR)
01:02AM -32.9702 137.7121 162° South 454 522 38,600 -180 Descending Aus ATC (RADAR)
01:02AM -33.0199 137.7318 162° South 453 521 38,700 60 Climbing Aus ATC (RADAR)
01:03AM -33.0990 137.7633 162° South 451 519 38,700 -120 Level Aus ATC (RADAR)
01:03AM -33.1783 137.7952 161° South 453 521 38,600 -600 Descending Aus ATC (RADAR)
01:04AM -33.2462 137.8233 161° South 444 511 38,000 -1,080 Descending Aus ATC (RADAR)
01:05AM -33.3321 137.8573 162° South 434 499 37,200 -1,200 Descending Aus ATC (RADAR)
01:05AM -33.3797 137.8766 161° South 435 501 36,600 -2,520 Descending Aus ATC (RADAR)
01:06AM -33.4469 137.9040 161° South 440 506 34,700 -3,180 Descending Aus ATC (RADAR)
01:07AM -33.5545 137.9472 161° South 447 514 31,900 -3,000 Descending Aus ATC (RADAR)
01:07AM -33.5837 137.9595 161° South 447 514 31,200 -3,360 Descending Aus ATC (RADAR)
01:07AM -33.6525 137.9878 161° South 449 517 29,200 -3,180 Descending Aus ATC (RADAR)
01:08AM -33.7497 138.0275 161° South 442 509 26,800 -3,120 Descending Aus ATC (RADAR)
01:09AM -33.8160 138.0550 161° South 432 497 24,800 -3,000 Descending Aus ATC (RADAR)
01:09AM -33.8911 138.0853 161° South 425 489 23,100 -2,700 Descending Aus ATC (RADAR)
01:10AM -33.9366 138.1045 161° South 418 481 21,900 -2,700 Descending Aus ATC (RADAR)
01:10AM -34.0082 138.1337 161° South 406 467 20,200 -2,400 Descending Aus ATC (RADAR)
01:11AM -34.1118 138.1763 161° South 391 450 17,900 -2,400 Descending Aus ATC (RADAR)
01:12AM -34.1544 138.1939 161° South 388 447 16,800 -2,220 Descending Aus ATC (RADAR)
01:12AM -34.2122 138.2177 161° South 376 433 15,700 -2,040 Descending Aus ATC (RADAR)
01:13AM -34.2837 138.2475 161° South 362 417 14,100 -2,280 Descending Aus ATC (RADAR)
01:14AM -34.3458 138.2730 161° South 353 406 12,500 -2,520 Descending Aus ATC (RADAR)
01:15AM -34.4231 138.3052 161° South 350 403 10,400 -2,400 Descending Aus ATC (RADAR)
01:15AM -34.4454 138.3144 161° South 343 395 9,900 -1,680 Descending Aus ATC (RADAR)
01:16AM -34.4965 138.3357 161° South 332 382 9,000 -1,740 Descending Aus ATC (RADAR)
01:17AM -34.6041 138.3787 162° South 303 349 6,700 -1,740 Descending Aus ATC (RADAR)
01:17AM -34.6367 138.3934 160° South 300 345 6,000 -1,140 Descending Aus ATC (RADAR)
01:18AM -34.6647 138.4419 125° Southeast 304 350 5,600 -780 Descending Aus ATC (RADAR)
01:19AM -34.6873 138.5090 112° Southeast 284 327 5,000 -1,080 Descending Aus ATC (RADAR)
01:19AM -34.7101 138.5550 121° Southeast 274 315 4,200 -720 Descending Aus ATC (RADAR)
01:20AM -34.7501 138.6001 137° Southeast 263 303 4,100 -120 Descending Aus ATC (RADAR)
01:20AM -34.7712 138.6255 135° Southeast 257 296 4,100 -240 Level Aus ATC (RADAR)
01:21AM -34.8072 138.6695 135° Southeast 213 245 3,800 -660 Descending Aus ATC (RADAR)
01:22AM -34.8254 138.6862 143° Southeast 200 230 3,300 -720 Descending Aus ATC (RADAR)
01:22AM -34.8447 138.6808 193° South 176 203 3,200 -600 Descending Aus ATC (RADAR)
01:23AM -34.8607 138.6593 228° Southwest 149 171 2,700 -1,020 Descending Aus ATC (RADAR)
01:23AM -34.8800 138.6314 230° Southwest 142 163 1,900 -900 Descending Aus ATC (RADAR)
01:24AM -34.8939 138.6112 230° Southwest 134 154 1,500 -720 Descending Aus ATC (RADAR)
01:25AM -34.9112 138.5863 230° Southwest 129 148 1,000 -720 Descending Aus ATC (RADAR)
01:25AM -34.9213 138.5715 230° Southwest 135 155 700 -840 Descending Aus ATC (RADAR)
01:26AM -34.9351 138.5514 230° Southwest 133 153 200 -900 Descending Aus ATC (RADAR)